Wednesday, October 18, 2017, 5:55 PM EDT
Back to Local

KWST, Westerly State Airport

Location: Westerly, RI, United States Lat: 41.35
Local Time: 5:55 PM EDT (21:55 GMT) Lon: -71.8
Time Zone: US/Eastern Elev: 82 ft

Show me the last for .
Show Decoded

2017-10-18 16:53 METAR KWST 182053Z AUTO 25007KT 10SM CLR 19/10 A3025 RMK AO2 SLP242 T01940100
                 58003 =
2017-10-18 15:53 METAR KWST 181953Z AUTO 23008KT 10SM CLR 20/10 A3025 RMK AO2 SLP244 T02000100 =
2017-10-18 14:53 METAR KWST 181853Z AUTO 23008KT 10SM CLR 20/09 A3025 RMK AO2 SLP244 T02000094 =
2017-10-18 13:53 METAR KWST 181753Z AUTO 22007KT 10SM CLR 21/09 A3026 RMK AO2 SLP245 T02060089
                 10206 20117 58015 =
2017-10-18 12:53 METAR KWST 181653Z AUTO 22007KT 10SM CLR 21/08 A3028 RMK AO2 SLP253 T02060083 =
2017-10-18 11:53 METAR KWST 181553Z AUTO VRB05KT 10SM CLR 19/07 A3030 RMK AO2 SLP260 T01940072 =
2017-10-18 10:53 METAR KWST 181453Z AUTO 24005KT 10SM CLR 17/06 A3030 RMK AO2 SLP261 T01720056
                 50006 =
2017-10-18 09:53 METAR KWST 181353Z AUTO 26005KT 10SM CLR 16/05 A3031 RMK AO2 SLP262 T01610050 =
2017-10-18 08:53 METAR KWST 181253Z AUTO 27004KT 10SM CLR 14/04 A3030 RMK AO2 SLP260 T01390044 =
2017-10-18 07:53 METAR KWST 181153Z AUTO 00000KT 10SM CLR 12/03 A3029 RMK AO2 SLP255 T01170033
                 10128 20100 51011 =
2017-10-18 06:53 METAR KWST 181053Z AUTO 26004KT 10SM CLR 11/03 A3027 RMK AO2 SLP251 T01110028 =
2017-10-18 05:53 METAR KWST 180953Z AUTO 26005KT 10SM CLR 11/03 A3027 RMK AO2 SLP249 T01110033 =
2017-10-18 04:53 METAR KWST 180853Z AUTO 25003KT 10SM CLR 11/05 A3025 RMK AO2 SLP244 T01110050
                 55002 =
2017-10-18 03:53 METAR KWST 180753Z AUTO 27004KT 10SM CLR 11/06 A3024 RMK AO2 SLP240 T01110056 =
2017-10-18 02:53 METAR KWST 180653Z AUTO 27003KT 10SM CLR 12/06 A3025 RMK AO2 SLP242 T01170061 =
2017-10-18 01:53 METAR KWST 180553Z AUTO 25004KT 10SM CLR 13/07 A3026 RMK AO2 SLP246 T01280072
                 10133 20106 58009 =
2017-10-18 00:53 METAR KWST 180453Z AUTO 24006KT 10SM CLR 13/06 A3027 RMK AO2 SLP250 T01330061
                 401440033 =
2017-10-17 23:53 METAR KWST 180353Z AUTO 23005KT 10SM CLR 13/06 A3027 RMK AO2 SLP251 T01280056 =
2017-10-17 22:53 METAR KWST 180253Z AUTO 21005KT 10SM CLR 12/04 A3029 RMK AO2 SLP255 T01220044
                 51003 =
2017-10-17 21:53 METAR KWST 180153Z AUTO 22004KT 10SM CLR 12/04 A3029 RMK AO2 SLP256 T01220039 =
2017-10-17 20:53 METAR KWST 180053Z AUTO 21005KT 10SM CLR 12/03 A3028 RMK AO2 SLP254 T01170033 =
2017-10-17 19:53 METAR KWST 172353Z AUTO 22005KT 10SM CLR 12/03 A3028 RMK AO2 SLP253 T01170033
                 10144 20100 53007 =
2017-10-17 18:53 METAR KWST 172253Z AUTO 22003KT 10SM CLR 10/04 A3027 RMK AO2 SLP251 T01000039 =

Support USWX by starting your Amazon purchase here.